createdAt,value
2017-10-19T00:00:07.919Z,23.07
2017-10-19T00:01:16.913Z,23.04
2017-10-19T00:02:26.201Z,23.05
2017-10-19T00:03:35.494Z,23.04
2017-10-19T00:04:44.523Z,23.01
2017-10-19T00:05:53.172Z,23.05
2017-10-19T00:07:02.137Z,23.05
2017-10-19T00:08:11.463Z,23.02
2017-10-19T00:09:20.431Z,23.02
2017-10-19T00:10:29.736Z,23.01
2017-10-19T00:11:39.030Z,23.01
2017-10-19T00:12:48.064Z,23.01
2017-10-19T00:13:57.682Z,23.01
2017-10-19T00:15:06.351Z,23.01
2017-10-19T00:16:15.313Z,23
2017-10-19T00:17:24.645Z,23.01
2017-10-19T00:18:33.645Z,23.01
2017-10-19T00:19:42.958Z,23.02
2017-10-19T00:20:52.260Z,23
2017-10-19T00:22:01.887Z,23
2017-10-19T00:23:10.544Z,23
2017-10-19T00:24:19.543Z,23.02
2017-10-19T00:25:29.198Z,22.98
2017-10-19T00:26:38.190Z,23.01
2017-10-19T00:27:47.509Z,23.02
2017-10-19T00:28:56.482Z,23.04
2017-10-19T00:30:05.782Z,23
2017-10-19T00:31:14.412Z,22.98
2017-10-19T00:32:23.718Z,22.95
2017-10-19T00:33:33.344Z,23.04
2017-10-19T00:34:42.340Z,23.05
2017-10-19T00:35:51.989Z,23
2017-10-19T00:37:01.627Z,22.97
2017-10-19T00:38:10.941Z,22.98
2017-10-19T00:39:19.946Z,22.98
2017-10-19T00:40:28.562Z,23.01
2017-10-19T00:41:37.572Z,22.94
2017-10-19T00:42:46.533Z,22.94
2017-10-19T00:43:56.196Z,22.92
2017-10-19T00:45:05.174Z,22.94
2017-10-19T00:46:14.146Z,22.92
2017-10-19T00:47:23.128Z,22.88
2017-10-19T00:48:32.108Z,22.94
2017-10-19T00:49:41.088Z,23.01
2017-10-19T00:50:49.739Z,22.86
2017-10-19T00:51:58.742Z,22.94
2017-10-19T00:53:08.416Z,22.95
2017-10-19T00:54:17.680Z,22.97
2017-10-19T00:55:27.012Z,22.92
2017-10-19T00:56:35.977Z,22.92
2017-10-19T00:57:45.275Z,22.94
2017-10-19T00:58:54.265Z,22.94
2017-10-19T01:00:02.925Z,22.91
2017-10-19T01:01:12.241Z,22.97
2017-10-19T01:02:20.883Z,22.92
2017-10-19T01:03:30.513Z,22.9
2017-10-19T01:04:39.546Z,22.94
2017-10-19T01:05:49.181Z,22.95
2017-10-19T01:06:58.157Z,22.95
2017-10-19T01:08:07.147Z,22.97
2017-10-19T01:09:16.445Z,22.94
2017-10-19T01:10:25.732Z,22.95
2017-10-19T01:11:34.721Z,22.92
2017-10-19T01:12:43.425Z,22.94
2017-10-19T01:13:52.723Z,22.95
2017-10-19T01:15:02.362Z,22.88
2017-10-19T01:16:11.390Z,22.98
2017-10-19T01:17:20.710Z,22.94
2017-10-19T01:18:29.365Z,22.91
2017-10-19T01:19:38.683Z,22.94
2017-10-19T01:20:47.986Z,22.86
2017-10-19T01:21:56.981Z,22.9
2017-10-19T01:23:06.281Z,22.94
2017-10-19T01:24:15.247Z,22.86
2017-10-19T01:25:23.897Z,22.94
2017-10-19T01:26:32.856Z,22.83
2017-10-19T01:27:42.812Z,22.88
2017-10-19T01:28:52.108Z,22.91
2017-10-19T01:30:00.749Z,22.83
2017-10-19T01:31:09.437Z,22.86
2017-10-19T01:32:19.052Z,22.9
2017-10-19T01:33:27.698Z,22.91
2017-10-19T01:34:36.675Z,22.92
2017-10-19T01:35:45.652Z,22.9
2017-10-19T01:36:54.373Z,22.94
2017-10-19T01:38:03.027Z,22.9
2017-10-19T01:39:12.714Z,22.91
2017-10-19T01:40:22.095Z,22.94
2017-10-19T01:41:31.388Z,22.9
2017-10-19T01:42:41.084Z,22.85
2017-10-19T01:43:50.385Z,22.9
2017-10-19T01:44:59.707Z,22.9
2017-10-19T01:46:08.356Z,22.9
2017-10-19T01:47:17.682Z,22.88
2017-10-19T01:48:26.347Z,22.8
2017-10-19T01:49:35.715Z,22.82
2017-10-19T01:50:44.379Z,22.8
2017-10-19T01:51:53.019Z,22.8
2017-10-19T01:53:02.345Z,22.83
2017-10-19T01:54:11.334Z,22.83
2017-10-19T01:55:20.626Z,22.8
2017-10-19T01:56:29.612Z,22.85
2017-10-19T01:57:38.576Z,22.85
2017-10-19T01:58:48.217Z,22.86
2017-10-19T01:59:57.527Z,22.83
2017-10-19T02:01:06.488Z,22.82
2017-10-19T02:02:15.451Z,22.82
2017-10-19T02:03:24.094Z,22.83
2017-10-19T02:04:32.752Z,22.8
2017-10-19T02:05:41.777Z,22.77
2017-10-19T02:06:50.772Z,22.8
2017-10-19T02:07:59.427Z,22.79
2017-10-19T02:09:08.415Z,22.77
2017-10-19T02:10:17.404Z,22.76
2017-10-19T02:11:27.037Z,22.85
2017-10-19T02:12:35.679Z,22.85
2017-10-19T02:13:44.643Z,22.73
2017-10-19T02:14:53.622Z,22.8
2017-10-19T02:16:02.269Z,22.83
2017-10-19T02:17:10.916Z,22.77
2017-10-19T02:18:19.894Z,22.79
2017-10-19T02:19:29.189Z,22.75
2017-10-19T02:20:38.502Z,22.82
2017-10-19T02:21:47.800Z,22.76
2017-10-19T02:22:56.797Z,22.79
2017-10-19T02:24:05.470Z,22.82
2017-10-19T02:25:14.818Z,22.76
2017-10-19T02:26:23.506Z,22.77
2017-10-19T02:27:32.554Z,22.68
2017-10-19T02:28:42.185Z,22.72
2017-10-19T02:29:51.192Z,22.76
2017-10-19T02:30:59.848Z,22.75
2017-10-19T02:32:08.839Z,22.76
2017-10-19T02:33:17.503Z,22.79
2017-10-19T02:34:26.807Z,22.76
2017-10-19T02:35:35.787Z,22.72
2017-10-19T02:36:44.761Z,22.7
2017-10-19T02:37:53.444Z,22.75
2017-10-19T02:39:02.430Z,22.77
2017-10-19T02:40:11.068Z,22.68
2017-10-19T02:41:19.724Z,22.7
2017-10-19T02:42:29.029Z,22.76
2017-10-19T02:43:38.353Z,22.73
2017-10-19T02:44:47.656Z,22.75
2017-10-19T02:45:56.330Z,22.7
2017-10-19T02:47:04.966Z,22.75
2017-10-19T02:48:14.266Z,22.77
2017-10-19T02:49:23.235Z,22.68
2017-10-19T02:50:32.544Z,22.75
2017-10-19T02:51:41.195Z,22.76
2017-10-19T02:52:50.178Z,22.75
2017-10-19T02:53:58.831Z,22.7
2017-10-19T02:55:08.781Z,22.75
2017-10-19T02:56:18.077Z,22.64
2017-10-19T02:57:27.390Z,22.7
2017-10-19T02:58:36.397Z,22.73
2017-10-19T02:59:45.376Z,22.77
2017-10-19T03:00:54.014Z,22.72
2017-10-19T03:02:03.308Z,22.77
2017-10-19T03:03:12.614Z,22.72
2017-10-19T03:04:21.921Z,22.75
2017-10-19T03:05:30.915Z,22.73
2017-10-19T03:06:39.920Z,22.72
2017-10-19T03:07:48.898Z,22.72
2017-10-19T03:08:57.865Z,22.61
2017-10-19T03:10:06.863Z,22.67
2017-10-19T03:11:15.833Z,22.64
2017-10-19T03:12:24.818Z,22.64
2017-10-19T03:13:34.149Z,22.68
2017-10-19T03:14:43.442Z,22.75
2017-10-19T03:15:52.739Z,22.7
2017-10-19T03:17:01.710Z,22.7
2017-10-19T03:18:10.351Z,22.7
2017-10-19T03:19:19.319Z,22.7
2017-10-19T03:20:28.294Z,22.67
2017-10-19T03:21:36.932Z,22.62
2017-10-19T03:22:46.574Z,22.7
2017-10-19T03:23:55.870Z,22.7
2017-10-19T03:25:05.197Z,22.72
2017-10-19T03:26:14.161Z,22.68
2017-10-19T03:27:23.797Z,22.7
2017-10-19T03:28:33.089Z,22.76
2017-10-19T03:29:42.375Z,22.68
2017-10-19T03:30:51.337Z,22.72
2017-10-19T03:32:00.311Z,22.7
2017-10-19T03:33:09.960Z,22.68
2017-10-19T03:34:19.275Z,22.62
2017-10-19T03:35:28.568Z,22.61
2017-10-19T03:36:37.860Z,22.68
2017-10-19T03:37:47.174Z,22.6
2017-10-19T03:38:56.161Z,22.68
2017-10-19T03:40:05.136Z,22.6
2017-10-19T03:41:14.434Z,22.61
2017-10-19T03:42:23.409Z,22.6
2017-10-19T03:43:32.043Z,22.64
2017-10-19T03:44:41.036Z,22.64
2017-10-19T03:45:49.997Z,22.61
2017-10-19T03:46:59.293Z,22.68
2017-10-19T03:48:08.266Z,22.67
2017-10-19T03:49:17.261Z,22.57
2017-10-19T03:50:25.900Z,22.73
2017-10-19T03:51:35.201Z,22.68
2017-10-19T03:52:44.180Z,22.61
2017-10-19T03:53:53.171Z,22.57
2017-10-19T03:55:01.812Z,22.57
2017-10-19T03:56:11.113Z,22.58
2017-10-19T03:57:20.409Z,22.57
2017-10-19T03:58:29.709Z,22.58
2017-10-19T03:59:38.341Z,22.57
2017-10-19T04:00:46.988Z,22.64
2017-10-19T04:01:56.629Z,22.58
2017-10-19T04:03:06.252Z,22.68
2017-10-19T04:04:14.897Z,22.57
2017-10-19T04:05:23.539Z,22.6
2017-10-19T04:06:33.194Z,22.61
2017-10-19T04:07:42.496Z,22.62
2017-10-19T04:08:51.145Z,22.67
2017-10-19T04:10:00.438Z,22.61
2017-10-19T04:11:09.403Z,22.58
2017-10-19T04:12:18.700Z,22.61
2017-10-19T04:13:28.003Z,22.6
2017-10-19T04:14:37.292Z,22.57
2017-10-19T04:15:46.282Z,22.67
2017-10-19T04:16:56.220Z,22.6
2017-10-19T04:18:05.512Z,22.57
2017-10-19T04:19:14.485Z,22.6
2017-10-19T04:20:24.135Z,22.67
2017-10-19T04:21:32.784Z,22.57
2017-10-19T04:22:41.771Z,22.67
2017-10-19T04:23:50.735Z,22.58
2017-10-19T04:24:59.704Z,22.54
2017-10-19T04:26:08.364Z,22.68
2017-10-19T04:27:17.307Z,22.67
2017-10-19T04:28:25.947Z,22.58
2017-10-19T04:29:35.264Z,22.68
2017-10-19T04:30:44.327Z,22.65
2017-10-19T04:31:53.289Z,22.67
2017-10-19T04:33:02.658Z,22.67
2017-10-19T04:34:11.646Z,22.6
2017-10-19T04:35:20.286Z,22.6
2017-10-19T04:36:29.584Z,22.57
2017-10-19T04:37:38.861Z,22.61
2017-10-19T04:38:47.499Z,22.64
2017-10-19T04:39:56.135Z,22.58
2017-10-19T04:41:05.126Z,22.52
2017-10-19T04:42:14.447Z,22.61
2017-10-19T04:43:24.080Z,22.61
2017-10-19T04:44:33.735Z,22.68
2017-10-19T04:45:43.044Z,22.55
2017-10-19T04:46:52.045Z,22.58
2017-10-19T04:48:01.043Z,22.55
2017-10-19T04:49:10.350Z,22.6
2017-10-19T04:50:19.665Z,22.55
2017-10-19T04:51:28.310Z,22.6
2017-10-19T04:52:37.278Z,22.58
2017-10-19T04:53:46.282Z,22.65
2017-10-19T04:54:55.247Z,22.55
2017-10-19T04:56:04.906Z,22.58
2017-10-19T04:57:13.577Z,22.55
2017-10-19T04:58:22.559Z,22.55
2017-10-19T04:59:31.532Z,22.64
2017-10-19T05:00:40.185Z,22.7
2017-10-19T05:01:49.156Z,22.62
2017-10-19T05:02:57.893Z,22.68
2017-10-19T05:04:07.203Z,22.7
2017-10-19T05:05:16.202Z,22.6
2017-10-19T05:06:25.173Z,22.6
2017-10-19T05:07:34.156Z,22.67
2017-10-19T05:08:43.477Z,22.62
2017-10-19T05:09:52.122Z,22.57
2017-10-19T05:11:01.094Z,22.68
2017-10-19T05:12:10.059Z,22.6
2017-10-19T05:13:19.024Z,22.6
2017-10-19T05:14:28.069Z,22.61
2017-10-19T05:15:37.174Z,22.55
2017-10-19T05:16:45.828Z,22.55
2017-10-19T05:17:55.204Z,22.6
2017-10-19T05:19:04.974Z,22.61
2017-10-19T05:20:14.059Z,22.57
2017-10-19T05:21:22.709Z,22.61
2017-10-19T05:22:31.476Z,22.65
2017-10-19T05:23:40.473Z,22.67
2017-10-19T05:24:49.587Z,22.58
2017-10-19T05:25:58.584Z,22.67
2017-10-19T05:27:07.278Z,22.67
2017-10-19T05:28:16.262Z,22.67
2017-10-19T05:29:25.268Z,22.75
2017-10-19T05:30:33.950Z,22.79
2017-10-19T05:31:43.282Z,22.76
2017-10-19T05:32:52.417Z,22.79
2017-10-19T05:34:01.745Z,22.8
2017-10-19T05:35:11.063Z,22.76
2017-10-19T05:36:20.075Z,22.82
2017-10-19T05:37:28.807Z,22.83
2017-10-19T05:38:38.125Z,22.8
2017-10-19T05:39:47.488Z,22.88
2017-10-19T05:40:56.135Z,22.92
2017-10-19T05:42:05.538Z,22.91
2017-10-19T05:43:14.228Z,22.95
2017-10-19T05:44:22.904Z,22.88
2017-10-19T05:45:31.600Z,22.91
2017-10-19T05:46:40.656Z,22.9
2017-10-19T05:47:50.349Z,22.94
2017-10-19T05:48:59.714Z,22.98
2017-10-19T05:50:08.507Z,23.05
2017-10-19T05:51:18.193Z,23.01
2017-10-19T05:52:27.518Z,23.1
2017-10-19T05:53:36.178Z,23.05
2017-10-19T05:54:45.485Z,23.01
2017-10-19T05:55:54.148Z,23.02
2017-10-19T05:57:02.805Z,23.01
2017-10-19T05:58:11.481Z,23.02
2017-10-19T05:59:20.474Z,23.05
2017-10-19T06:00:29.482Z,23.05
2017-10-19T06:01:38.784Z,23.04
2017-10-19T06:02:47.771Z,23.02
2017-10-19T06:03:56.445Z,23.01
2017-10-19T06:05:05.429Z,23.07
2017-10-19T06:06:14.076Z,23.02
2017-10-19T06:07:23.105Z,23.05
2017-10-19T06:08:31.748Z,23.05
2017-10-19T06:09:41.123Z,23.04
2017-10-19T06:10:49.777Z,23.04
2017-10-19T06:11:59.076Z,23.05
2017-10-19T06:13:08.734Z,23.01
2017-10-19T06:14:17.752Z,22.98
2017-10-19T06:15:26.461Z,23.02
2017-10-19T06:16:36.120Z,23.07
2017-10-19T06:17:45.088Z,23.05
2017-10-19T06:18:54.411Z,23.07
2017-10-19T06:20:03.048Z,23.05
2017-10-19T06:21:12.363Z,23
2017-10-19T06:22:21.461Z,23.05
2017-10-19T06:23:30.177Z,23.05
2017-10-19T06:24:38.828Z,23.1
2017-10-19T06:25:48.506Z,23.1
2017-10-19T06:26:57.831Z,23.05
2017-10-19T06:28:07.527Z,23.04
2017-10-19T06:29:16.849Z,23.05
2017-10-19T06:30:26.222Z,23.05
2017-10-19T06:31:34.880Z,23.05
2017-10-19T06:32:43.524Z,23
2017-10-19T06:33:53.162Z,23.05
2017-10-19T06:35:01.829Z,23
2017-10-19T06:36:11.177Z,23.04
2017-10-19T06:37:20.172Z,23.07
2017-10-19T06:38:28.837Z,23.05
2017-10-19T06:39:38.814Z,23.04
2017-10-19T06:40:48.139Z,23.05
2017-10-19T06:41:57.116Z,23.05
2017-10-19T06:43:06.098Z,23.05
2017-10-19T06:44:15.110Z,23.07
2017-10-19T06:45:24.114Z,23.05
2017-10-19T06:46:33.103Z,22.95
2017-10-19T06:47:42.440Z,23.04
2017-10-19T06:48:51.095Z,23.07
2017-10-19T06:50:01.065Z,23.04
2017-10-19T06:51:10.066Z,23.04
2017-10-19T06:52:19.068Z,23.05
2017-10-19T06:53:28.392Z,23
2017-10-19T06:54:37.054Z,23
2017-10-19T06:55:46.039Z,22.97
2017-10-19T06:56:55.441Z,23.02
2017-10-19T06:58:04.821Z,22.98
2017-10-19T06:59:13.502Z,22.97
2017-10-19T07:00:22.527Z,22.97
2017-10-19T07:01:31.533Z,22.97
2017-10-19T07:02:40.528Z,22.92
2017-10-19T07:03:49.866Z,22.98
2017-10-19T07:04:58.870Z,22.98
2017-10-19T07:06:07.869Z,22.97
2017-10-19T07:07:17.214Z,22.94
2017-10-19T07:08:26.191Z,22.94
2017-10-19T07:09:35.173Z,22.95
2017-10-19T07:10:44.518Z,22.95
2017-10-19T07:11:53.206Z,22.92
2017-10-19T07:13:01.894Z,22.94
2017-10-19T07:14:11.226Z,22.91
2017-10-19T07:15:20.892Z,22.94
2017-10-19T07:16:30.534Z,22.94
2017-10-19T07:17:39.548Z,22.95
2017-10-19T07:18:48.211Z,22.92
2017-10-19T07:19:57.548Z,22.97
2017-10-19T07:21:06.537Z,22.98
2017-10-19T07:22:15.200Z,23
2017-10-19T07:23:24.853Z,22.95
2017-10-19T07:24:34.153Z,23
2017-10-19T07:25:43.470Z,23
2017-10-19T07:26:52.797Z,22.98
2017-10-19T07:28:01.541Z,22.98
2017-10-19T07:29:11.521Z,22.97
2017-10-19T07:30:20.518Z,23.01
2017-10-19T07:31:29.843Z,23.02
2017-10-19T07:32:38.840Z,23.01
2017-10-19T07:33:47.820Z,22.98
2017-10-19T07:34:56.825Z,23.02
2017-10-19T07:36:06.152Z,23.02
2017-10-19T07:37:15.476Z,23
2017-10-19T07:38:24.524Z,23
2017-10-19T07:39:34.157Z,23.02
2017-10-19T07:40:42.812Z,23
2017-10-19T07:41:51.486Z,23.01
2017-10-19T07:43:00.793Z,23.01
2017-10-19T07:44:09.790Z,23
2017-10-19T07:45:19.165Z,23
2017-10-19T07:46:28.162Z,23.01
2017-10-19T07:47:37.484Z,23.01
2017-10-19T07:48:46.822Z,23
2017-10-19T07:49:55.549Z,23.01
2017-10-19T07:51:04.537Z,22.98
2017-10-19T07:52:13.201Z,23.1
2017-10-19T07:53:22.229Z,23.04
2017-10-19T07:54:31.873Z,23.09
2017-10-19T07:55:40.887Z,23.01
2017-10-19T07:56:49.878Z,23.04
2017-10-19T07:57:59.541Z,23.1
2017-10-19T07:59:09.184Z,23.04
2017-10-19T08:00:17.885Z,23.04
2017-10-19T08:01:26.558Z,23.09
2017-10-19T08:02:35.553Z,23.05
2017-10-19T08:03:44.234Z,23.04
2017-10-19T08:04:53.879Z,23.04
2017-10-19T08:06:03.216Z,23
2017-10-19T08:07:11.957Z,23.07
2017-10-19T08:08:20.925Z,23.02
2017-10-19T08:09:30.241Z,23.05
2017-10-19T08:10:38.900Z,23.07
2017-10-19T08:11:47.867Z,23.1
2017-10-19T08:12:57.190Z,23.04
2017-10-19T08:14:06.199Z,23.01
2017-10-19T08:15:15.231Z,23.04
2017-10-19T08:16:23.908Z,23.05
2017-10-19T08:17:33.213Z,23.01
2017-10-19T08:18:42.842Z,23.05
2017-10-19T08:19:52.474Z,23.01
2017-10-19T08:21:01.786Z,23.05
2017-10-19T08:22:11.099Z,23.02
2017-10-19T08:23:20.436Z,23.05
2017-10-19T08:24:29.126Z,23.05
2017-10-19T08:25:38.446Z,22.95
2017-10-19T08:26:47.786Z,23.01
2017-10-19T08:27:57.121Z,23.01
2017-10-19T08:29:05.784Z,23
2017-10-19T08:30:15.117Z,23.04
2017-10-19T08:31:24.429Z,23.07
2017-10-19T08:32:34.084Z,23.1
2017-10-19T08:33:43.076Z,23.09
2017-10-19T08:34:52.072Z,23.02
2017-10-19T08:36:01.050Z,23.12
2017-10-19T08:37:10.032Z,23.05
2017-10-19T08:38:19.023Z,23.12
2017-10-19T08:39:28.138Z,23.05
2017-10-19T08:40:36.807Z,23.04
2017-10-19T08:41:45.481Z,23.04
2017-10-19T08:42:54.487Z,23.05
2017-10-19T08:44:03.138Z,23.05
2017-10-19T08:45:12.472Z,23.05
2017-10-19T08:46:21.808Z,23.04
2017-10-19T08:47:30.528Z,23.09
2017-10-19T08:48:40.183Z,23.1
2017-10-19T08:49:48.848Z,23.07
2017-10-19T08:50:57.839Z,23.02
2017-10-19T08:52:06.855Z,23.07
2017-10-19T08:53:15.866Z,23
2017-10-19T08:54:24.907Z,23.09
2017-10-19T08:55:33.887Z,23.13
2017-10-19T08:56:42.875Z,23.12
2017-10-19T08:57:52.206Z,23.05
2017-10-19T08:59:00.891Z,23.07
2017-10-19T09:00:10.204Z,23.07
2017-10-19T09:01:19.219Z,23
2017-10-19T09:02:28.217Z,23.02
2017-10-19T09:03:36.906Z,23.13
2017-10-19T09:04:45.906Z,23.1
2017-10-19T09:05:55.227Z,23.05
2017-10-19T09:07:04.274Z,23.05
2017-10-19T09:08:13.304Z,23.05
2017-10-19T09:09:21.963Z,23.05
2017-10-19T09:10:30.953Z,23.07
2017-10-19T09:11:39.663Z,23.02
2017-10-19T09:12:48.746Z,23.01
2017-10-19T09:13:58.085Z,23.07
2017-10-19T09:15:06.803Z,23.05
2017-10-19T09:16:16.199Z,23.07
2017-10-19T09:17:25.206Z,23.07
2017-10-19T09:18:34.845Z,23.05
2017-10-19T09:19:43.505Z,23.07
2017-10-19T09:20:52.817Z,23.02
2017-10-19T09:22:01.509Z,23.02
2017-10-19T09:23:10.874Z,23.12
2017-10-19T09:24:20.528Z,23.1
2017-10-19T09:25:29.210Z,23.05
2017-10-19T09:26:38.544Z,23.13
2017-10-19T09:27:47.550Z,23.04
2017-10-19T09:28:56.560Z,23.15
2017-10-19T09:30:05.958Z,23.07
2017-10-19T09:31:14.957Z,23.09
2017-10-19T09:32:23.967Z,23.13
2017-10-19T09:33:32.974Z,23.09
2017-10-19T09:34:41.705Z,23.13
2017-10-19T09:35:50.458Z,23.1
2017-10-19T09:36:59.825Z,23.13
2017-10-19T09:38:08.842Z,23.13
2017-10-19T09:39:17.840Z,23.02
2017-10-19T09:40:27.157Z,23.07
2017-10-19T09:41:35.931Z,23.09
2017-10-19T09:42:45.272Z,23.13
2017-10-19T09:43:54.605Z,23.04
2017-10-19T09:45:04.255Z,23.17
2017-10-19T09:46:13.245Z,23.16
2017-10-19T09:47:22.900Z,23.17
2017-10-19T09:48:31.967Z,23.07
2017-10-19T09:49:40.962Z,23.17
2017-10-19T09:50:50.291Z,23.15
2017-10-19T09:51:59.954Z,23.13
2017-10-19T09:53:08.947Z,23.15
2017-10-19T09:54:18.256Z,23.05
2017-10-19T09:55:27.245Z,23.15
2017-10-19T09:56:36.557Z,23.09
2017-10-19T09:57:45.539Z,23.15
2017-10-19T09:58:54.531Z,23.15
2017-10-19T10:00:03.206Z,23.15
2017-10-19T10:01:11.907Z,23.15
2017-10-19T10:02:20.579Z,23.13
2017-10-19T10:03:29.914Z,23.15
2017-10-19T10:04:39.254Z,23.17
2017-10-19T10:05:48.573Z,23.07
2017-10-19T10:06:57.272Z,23.05
2017-10-19T10:08:06.671Z,23.15
2017-10-19T10:09:15.649Z,23.15
2017-10-19T10:10:24.475Z,23.09
2017-10-19T10:11:33.870Z,23.05
2017-10-19T10:12:42.852Z,23.19
2017-10-19T10:13:51.506Z,23.12
2017-10-19T10:15:00.507Z,23.17
2017-10-19T10:16:09.842Z,23.17
2017-10-19T10:17:19.200Z,23.19
2017-10-19T10:18:29.280Z,23.13
2017-10-19T10:19:38.613Z,23.15
2017-10-19T10:20:47.952Z,23.2
2017-10-19T10:21:56.693Z,23.17
2017-10-19T10:23:05.692Z,23.1
2017-10-19T10:24:15.089Z,23.16
2017-10-19T10:25:24.513Z,23.13
2017-10-19T10:26:33.580Z,23.23
2017-10-19T10:27:42.479Z,23.19
2017-10-19T10:28:51.175Z,23.13
2017-10-19T10:30:00.173Z,23.16
2017-10-19T10:31:09.827Z,23.23
2017-10-19T10:32:19.498Z,23.1
2017-10-19T10:33:28.612Z,23.2
2017-10-19T10:34:37.323Z,23.16
2017-10-19T10:35:46.683Z,23.22
2017-10-19T10:36:55.694Z,23.27
2017-10-19T10:38:04.407Z,23.17
2017-10-19T10:39:13.511Z,23.27
2017-10-19T10:40:22.492Z,23.19
2017-10-19T10:41:31.484Z,23.2
2017-10-19T10:42:40.797Z,23.12
2017-10-19T10:43:49.777Z,23.23
2017-10-19T10:44:59.131Z,23.16
2017-10-19T10:46:08.781Z,23.28
2017-10-19T10:47:18.088Z,23.15
2017-10-19T10:48:27.431Z,23.23
2017-10-19T10:49:36.772Z,23.27
2017-10-19T10:50:46.088Z,23.31
2017-10-19T10:51:55.407Z,23.15
2017-10-19T10:53:04.427Z,23.25
2017-10-19T10:54:13.750Z,23.27
2017-10-19T10:55:22.749Z,23.28
2017-10-19T10:56:31.558Z,23.22
2017-10-19T10:57:40.253Z,23.22
2017-10-19T10:58:48.937Z,23.28
2017-10-19T10:59:58.280Z,23.23
2017-10-19T11:01:08.264Z,23.28
2017-10-19T11:02:17.307Z,23.27
2017-10-19T11:03:26.341Z,23.32
2017-10-19T11:04:35.337Z,23.33
2017-10-19T11:05:44.322Z,23.35
2017-10-19T11:06:53.346Z,23.38
2017-10-19T11:08:03.028Z,23.28
2017-10-19T11:09:12.054Z,23.23
2017-10-19T11:10:20.726Z,23.23
2017-10-19T11:11:29.730Z,23.27
2017-10-19T11:12:39.046Z,23.2
2017-10-19T11:13:48.374Z,23.4
2017-10-19T11:14:57.372Z,23.32
2017-10-19T11:16:06.674Z,23.27
2017-10-19T11:17:15.681Z,23.27
2017-10-19T11:18:25.061Z,23.39
2017-10-19T11:19:34.382Z,23.25
2017-10-19T11:20:43.042Z,23.27
2017-10-19T11:21:52.030Z,23.31
2017-10-19T11:23:01.387Z,23.27
2017-10-19T11:24:11.050Z,23.38
2017-10-19T11:25:20.478Z,23.4
2017-10-19T11:26:29.495Z,23.33
2017-10-19T11:27:38.814Z,23.39
2017-10-19T11:28:47.880Z,23.32
2017-10-19T11:29:57.231Z,23.4
2017-10-19T11:31:05.912Z,23.38
2017-10-19T11:32:14.601Z,23.36
2017-10-19T11:33:23.273Z,23.32
2017-10-19T11:34:32.700Z,23.38
2017-10-19T11:35:42.040Z,23.31
2017-10-19T11:36:51.198Z,23.39
2017-10-19T11:38:00.208Z,23.27
2017-10-19T11:39:08.887Z,23.35
2017-10-19T11:40:18.223Z,23.38
2017-10-19T11:41:26.917Z,23.28
2017-10-19T11:42:35.919Z,23.39
2017-10-19T11:43:45.264Z,23.4
2017-10-19T11:44:54.619Z,23.39
2017-10-19T11:46:04.272Z,23.36
2017-10-19T11:47:12.946Z,23.43
2017-10-19T11:48:22.044Z,23.38
2017-10-19T11:49:31.039Z,23.33
2017-10-19T11:50:40.068Z,23.32
2017-10-19T11:51:49.403Z,23.35
2017-10-19T11:52:58.734Z,23.39
2017-10-19T11:54:08.074Z,23.38
2017-10-19T11:55:17.083Z,23.33
2017-10-19T11:56:26.082Z,23.38
2017-10-19T11:57:35.098Z,23.38
2017-10-19T11:58:44.090Z,23.35
2017-10-19T11:59:54.064Z,23.35
2017-10-19T12:01:03.102Z,23.35
2017-10-19T12:02:12.184Z,23.39
2017-10-19T12:03:20.858Z,23.38
2017-10-19T12:04:30.235Z,23.32
2017-10-19T12:05:38.917Z,23.35
2017-10-19T12:06:47.917Z,23.35
2017-10-19T12:07:57.251Z,23.35
2017-10-19T12:09:06.578Z,23.36
2017-10-19T12:10:15.584Z,23.38
2017-10-19T12:11:24.580Z,23.33
2017-10-19T12:12:33.920Z,23.35
2017-10-19T12:13:42.606Z,23.42
2017-10-19T12:14:51.934Z,23.42
2017-10-19T12:16:01.277Z,23.36
2017-10-19T12:17:09.956Z,23.36
2017-10-19T12:18:19.286Z,23.39
2017-10-19T12:19:27.968Z,23.36
2017-10-19T12:20:36.961Z,23.32
2017-10-19T12:21:45.629Z,23.39
2017-10-19T12:22:54.974Z,23.32
2017-10-19T12:24:03.636Z,23.35
2017-10-19T12:25:12.968Z,23.39
2017-10-19T12:26:22.652Z,23.42
2017-10-19T12:27:31.400Z,23.46
2017-10-19T12:28:40.703Z,23.4
2017-10-19T12:29:49.870Z,23.38
2017-10-19T12:30:58.554Z,23.43
2017-10-19T12:32:07.901Z,23.35
2017-10-19T12:33:16.604Z,23.36
2017-10-19T12:34:26.072Z,23.35
2017-10-19T12:35:34.810Z,23.42
2017-10-19T12:36:44.217Z,23.38
2017-10-19T12:37:53.865Z,23.42
2017-10-19T12:39:02.870Z,23.36
2017-10-19T12:40:11.646Z,23.42
2017-10-19T12:41:20.983Z,23.39
2017-10-19T12:42:29.979Z,23.43
2017-10-19T12:43:39.632Z,23.36
2017-10-19T12:44:48.632Z,23.39
2017-10-19T12:45:57.510Z,23.47
2017-10-19T12:47:06.530Z,23.47
2017-10-19T12:48:15.877Z,23.48
2017-10-19T12:49:24.565Z,23.46
2017-10-19T12:50:33.583Z,23.39
2017-10-19T12:51:42.322Z,23.43
2017-10-19T12:52:51.006Z,23.39
2017-10-19T12:54:00.031Z,23.47
2017-10-19T12:55:09.042Z,23.47
2017-10-19T12:56:18.076Z,23.42
2017-10-19T12:57:27.206Z,23.4
2017-10-19T12:58:36.546Z,23.47
2017-10-19T12:59:45.863Z,23.48
2017-10-19T13:00:55.175Z,23.47
2017-10-19T13:02:04.506Z,23.43
2017-10-19T13:03:13.192Z,23.5
2017-10-19T13:04:22.599Z,23.51
2017-10-19T13:05:31.620Z,23.46
2017-10-19T13:06:40.961Z,23.48
2017-10-19T13:07:49.971Z,23.51
2017-10-19T13:08:59.034Z,23.51
2017-10-19T13:10:08.028Z,23.48
2017-10-19T13:11:16.688Z,23.51
2017-10-19T13:12:26.354Z,23.5
2017-10-19T13:13:35.340Z,23.51
2017-10-19T13:14:45.013Z,23.54
2017-10-19T13:15:54.041Z,23.5
2017-10-19T13:17:03.057Z,23.51
2017-10-19T13:18:11.720Z,23.55
2017-10-19T13:19:20.780Z,23.46
2017-10-19T13:20:30.129Z,23.48
2017-10-19T13:21:38.795Z,23.51
2017-10-19T13:22:48.480Z,23.57
2017-10-19T13:23:57.185Z,23.5
2017-10-19T13:25:06.276Z,23.57
2017-10-19T13:26:15.293Z,23.54
2017-10-19T13:27:24.667Z,23.5
2017-10-19T13:28:34.017Z,23.5
2017-10-19T13:29:43.046Z,23.51
2017-10-19T13:30:51.713Z,23.54
2017-10-19T13:32:00.816Z,23.55
2017-10-19T13:33:09.838Z,23.51
2017-10-19T13:34:18.545Z,23.53
2017-10-19T13:35:27.217Z,23.54
2017-10-19T13:36:36.546Z,23.54
2017-10-19T13:37:45.791Z,23.55
2017-10-19T13:38:55.127Z,23.5
2017-10-19T13:40:04.120Z,23.58
2017-10-19T13:41:12.812Z,23.58
2017-10-19T13:42:22.159Z,23.54
2017-10-19T13:43:31.817Z,23.54
2017-10-19T13:44:41.136Z,23.65
2017-10-19T13:45:50.136Z,23.54
2017-10-19T13:46:59.802Z,23.57
2017-10-19T13:48:09.787Z,23.55
2017-10-19T13:49:18.499Z,23.6
2017-10-19T13:50:27.512Z,23.58
2017-10-19T13:51:36.514Z,23.54
2017-10-19T13:52:45.183Z,23.51
2017-10-19T13:53:54.526Z,23.57
2017-10-19T13:55:03.208Z,23.58
2017-10-19T13:56:12.217Z,23.61
2017-10-19T13:57:21.232Z,23.57
2017-10-19T13:58:30.604Z,23.57
2017-10-19T13:59:39.992Z,23.63
2017-10-19T14:00:48.786Z,23.54
2017-10-19T14:01:57.823Z,23.61
2017-10-19T14:03:06.485Z,23.61
2017-10-19T14:04:15.856Z,23.61
2017-10-19T14:05:24.544Z,23.6
2017-10-19T14:06:33.972Z,23.54
2017-10-19T14:07:43.420Z,23.55
2017-10-19T14:08:52.749Z,23.53
2017-10-19T14:10:01.742Z,23.58
2017-10-19T14:11:10.925Z,23.61
2017-10-19T14:12:20.592Z,23.58
2017-10-19T14:13:29.660Z,23.58
2017-10-19T14:14:39.005Z,23.6
2017-10-19T14:15:48.329Z,23.54
2017-10-19T14:16:57.327Z,23.61
2017-10-19T14:18:06.499Z,23.63
2017-10-19T14:19:15.506Z,23.58
2017-10-19T14:20:24.870Z,23.58
2017-10-19T14:21:34.525Z,23.58
2017-10-19T14:22:44.239Z,23.58
2017-10-19T14:23:53.622Z,23.57
2017-10-19T14:25:03.017Z,23.55
2017-10-19T14:26:11.704Z,23.63
2017-10-19T14:27:20.367Z,23.55
2017-10-19T14:28:29.374Z,23.58
2017-10-19T14:29:38.726Z,23.54
2017-10-19T14:30:48.242Z,23.58
2017-10-19T14:31:57.008Z,23.54
2017-10-19T14:33:06.327Z,23.57
2017-10-19T14:34:15.346Z,23.55
2017-10-19T14:35:24.670Z,23.54
2017-10-19T14:36:33.692Z,23.61
2017-10-19T14:37:42.752Z,23.58
2017-10-19T14:38:52.080Z,23.55
2017-10-19T14:40:01.443Z,23.58
2017-10-19T14:41:10.444Z,23.51
2017-10-19T14:42:19.571Z,23.58
2017-10-19T14:43:28.905Z,23.53
2017-10-19T14:44:38.297Z,23.54
2017-10-19T14:45:47.616Z,23.58
2017-10-19T14:46:56.932Z,23.61
2017-10-19T14:48:05.610Z,23.6
2017-10-19T14:49:14.604Z,23.6
2017-10-19T14:50:23.963Z,23.51
2017-10-19T14:51:33.642Z,23.55
2017-10-19T14:52:42.961Z,23.58
2017-10-19T14:53:52.629Z,23.54
2017-10-19T14:55:01.680Z,23.54